메인 페이지
METAR-TAF:

METAR-TAF

공항 :

푸나푸티 국제공항

푸나푸티, 투발루

위도: 08-31S, 경도: 179-13E, 고도: 1m

현재 날씨관측

예보는 48분 전, 03:00시(UTC)에 발표되었습니다.
여러 방향의 바람 2kt
온도 33°C
습도 71%
기압 1007 hPa
시정 10km 이상
고도 1600ft 상공 구름 조금, 적란운.
고도 1800ft 상공 구름 조금, 타워링 적운.
고도 2000ft 상공 구름 보통
고도 30000ft 상공 구름 많음
시계 내 소나기,

METAR: NGFU 250300Z VRB02KT 9999 VCSH FEW016CB FEW018TCU SCT020 BKN300 33/27 Q1007

시각: 15:48 (03:48 UTC)

예보

예보는 4 시간 33분 전, 23:15시(UTC)에 발표되었습니다.
예보 대상 시간: 25일 00시부터 25일 24시까지 (UTC)
7kt
시정 10km 이상
고도 1800ft 상공 구름 보통
고도 10000ft 상공 구름 많음
확률 40% :
일시적
25일 00시부터 25일 08시까지 (UTC)
시정: 5000m
고도 1500ft 상공 구름 많음
고도 1600ft 상공 구름 조금, 적란운.
뇌우, 비
확률 40% :
일시적
25일 12시부터 25일 20시까지 (UTC)
시정: 5000m
고도 1500ft 상공 구름 많음
고도 1600ft 상공 구름 조금, 적란운.
뇌우, 비,

TAF: NGFU 242315Z 2500/2524 08007KT 9999 SCT018 BKN100 PROB40 TEMPO 2500/2508 5000 TSRA BKN015 FEW016CB PROB40 TEMPO 2512/2520 5000 TSRA BKN015 FEW016CB

4,000개 이상의 공항 관측 자료 및 예보 (METAR 및 TAF 보고).

지도상에서 검색 가능한 기상관측소가 노란 점과 빨간 점으로 표시되어 있습니다.

기상관측소 명을 보려면 표시 위로 마우스를 이동하세요.

날씨 관측과 예보를 보려면 클릭하세요.

지도 변경 : 확대하려면 엑스 표시가 있는 녹색 버튼, 축소하려면 빼기 표시가 있는 녹색 버튼, 다음 페이지의 지도를 보려면 녹색 화살표를 클릭하세요.


METAR-TAF: